Time;durP1;ratioP1;P1;durP2;ratioP2;P2;SDS_P1;SDS_P2;PMS_P1;PMS_P2;Temp;Humidity;BMP_temperature;BMP_pressure;BME280_temperature;BME280_humidity;BME280_pressure;Samples;Min_cycle;Max_cycle;Signal;HPM_P1;HPM_P2
2021/09/30 00:02:50;;;;;;;1.45;0.52;;;20.00;48.90;;;;;;6200203;28;20069;-82
2021/09/30 00:05:51;;;;;;;0.95;0.17;;;20.00;48.80;;;;;;6178116;28;20042;-82
2021/09/30 00:08:52;;;;;;;1.60;0.25;;;19.90;48.60;;;;;;6225396;28;20124;-82
2021/09/30 00:12:00;;;;;;;1.83;0.30;;;20.00;48.40;;;;;;6190966;28;20046;-82
2021/09/30 00:15:07;;;;;;;0.35;0.20;;;20.00;48.30;;;;;;6208126;28;20048;-82
2021/09/30 00:41:41;;;;;;;1.15;0.50;;;19.70;48.90;;;;;;6149531;28;20046;-83
2021/09/30 00:48:12;;;;;;;0.85;0.43;;;19.60;49.30;;;;;;6146571;28;20118;-82
2021/09/30 02:59:06;;;;;;;1.20;0.50;;;17.70;54.60;;;;;;6201964;28;20125;-82
2021/09/30 03:02:09;;;;;;;1.73;0.50;;;17.70;54.70;;;;;;6185348;28;20068;-83
2021/09/30 03:05:14;;;;;;;1.70;0.70;;;17.70;54.70;;;;;;6194247;28;20044;-82
2021/09/30 03:08:15;;;;;;;0.80;0.43;;;17.70;54.70;;;;;;6201915;28;20037;-83
2021/09/30 03:11:21;;;;;;;2.33;0.50;;;17.60;54.80;;;;;;6202842;28;20048;-83
2021/09/30 03:14:25;;;;;;;2.00;0.50;;;17.60;54.80;;;;;;6180006;28;20029;-83
2021/09/30 03:17:42;;;;;;;5.00;0.70;;;17.60;54.80;;;;;;6194047;28;20148;-83
2021/09/30 03:20:54;;;;;;;1.98;0.60;;;17.60;54.90;;;;;;6176350;28;20078;-83
2021/09/30 03:23:57;;;;;;;2.65;0.73;;;17.60;55.10;;;;;;6193336;28;20100;-83
2021/09/30 03:27:01;;;;;;;1.92;0.70;;;17.60;55.20;;;;;;6197890;28;20049;-83
2021/09/30 03:30:03;;;;;;;3.28;0.60;;;17.60;55.30;;;;;;6195411;28;20030;-83
2021/09/30 03:33:08;;;;;;;1.63;0.80;;;17.50;55.40;;;;;;6201712;28;20048;-82
2021/09/30 03:36:15;;;;;;;2.72;0.77;;;17.50;55.40;;;;;;6197753;28;20038;-82
2021/09/30 03:39:23;;;;;;;0.45;0.43;;;17.40;55.60;;;;;;6203167;28;20038;-81
2021/09/30 03:42:24;;;;;;;;;;;17.40;55.80;;;;;;6195554;28;20038;-82
2021/09/30 03:45:31;;;;;;;2.40;1.05;;;17.40;55.80;;;;;;6194356;28;19940;-83
2021/09/30 03:48:51;;;;;;;1.85;0.63;;;17.30;55.70;;;;;;6185312;28;20344;-82
2021/09/30 03:59:19;;;;;;;1.83;0.63;;;17.30;55.60;;;;;;6168400;28;20097;-82
2021/09/30 04:02:25;;;;;;;3.90;0.80;;;17.30;55.60;;;;;;6140772;28;20035;-82
2021/09/30 04:05:26;;;;;;;5.07;0.70;;;17.30;55.60;;;;;;6142103;28;20045;-82
2021/09/30 04:08:30;;;;;;;0.90;0.50;;;17.30;55.70;;;;;;6160943;28;20530;-82
2021/09/30 04:11:31;;;;;;;4.32;0.75;;;17.30;55.70;;;;;;6150883;28;20154;-82
2021/09/30 04:14:32;;;;;;;3.72;0.75;;;17.30;55.90;;;;;;6168380;28;20077;-82
2021/09/30 04:17:33;;;;;;;6.40;0.60;;;17.30;56.10;;;;;;6151038;28;20031;-82
2021/09/30 04:20:34;;;;;;;0.63;0.40;;;17.30;56.10;;;;;;6150063;28;20563;-82
2021/09/30 04:23:39;;;;;;;2.85;0.93;;;17.20;56.30;;;;;;6167269;28;20073;-82
2021/09/30 04:26:41;;;;;;;2.88;0.70;;;17.20;56.20;;;;;;6166893;28;20107;-82
2021/09/30 04:29:44;;;;;;;0.93;0.63;;;17.20;56.30;;;;;;6179809;28;20054;-83
2021/09/30 04:32:45;;;;;;;3.17;0.82;;;17.10;56.90;;;;;;6165475;28;20035;-83
2021/09/30 04:35:46;;;;;;;3.10;1.00;;;17.10;56.40;;;;;;6183018;28;20034;-83
2021/09/30 04:38:51;;;;;;;2.38;0.93;;;17.00;56.50;;;;;;6182270;28;20031;-82
2021/09/30 04:41:52;;;;;;;3.35;1.10;;;17.00;56.90;;;;;;6170528;28;20109;-83
2021/09/30 04:44:54;;;;;;;2.47;1.10;;;17.00;56.70;;;;;;6185555;28;20039;-82
2021/09/30 04:47:55;;;;;;;1.83;1.00;;;17.00;56.70;;;;;;6185350;28;20329;-83
2021/09/30 04:50:56;;;;;;;7.80;1.02;;;16.90;56.70;;;;;;6177501;28;20039;-83
2021/09/30 04:53:58;;;;;;;1.48;0.98;;;16.90;56.70;;;;;;6198185;28;20058;-81
2021/09/30 04:56:59;;;;;;;2.33;1.10;;;16.90;56.80;;;;;;6205903;28;20121;-81
2021/09/30 05:00:06;;;;;;;6.43;1.00;;;16.90;56.70;;;;;;6189987;28;20042;-82
2021/09/30 05:03:24;;;;;;;10.02;1.13;;;16.90;56.80;;;;;;6194619;28;20080;-83
2021/09/30 05:06:26;;;;;;;3.58;1.00;;;16.90;56.80;;;;;;6189830;28;20048;-80
2021/09/30 05:09:28;;;;;;;2.47;1.10;;;16.80;56.80;;;;;;6197367;28;20379;-78
2021/09/30 05:12:34;;;;;;;5.75;1.33;;;16.80;57.50;;;;;;6206407;28;20435;-79
2021/09/30 05:15:36;;;;;;;2.70;1.05;;;16.80;56.80;;;;;;6204691;28;20037;-78
2021/09/30 05:18:49;;;;;;;4.68;1.13;;;16.80;56.80;;;;;;6192455;28;20316;-78
2021/09/30 05:21:50;;;;;;;7.00;1.50;;;16.80;56.80;;;;;;6182898;28;20037;-79
2021/09/30 05:24:51;;;;;;;4.28;0.98;;;16.70;56.80;;;;;;6207672;28;20038;-80
2021/09/30 05:27:54;;;;;;;3.90;1.30;;;16.70;56.90;;;;;;6206024;28;20037;-78
2021/09/30 05:30:55;;;;;;;3.75;1.30;;;16.70;56.90;;;;;;6205634;28;20045;-77
2021/09/30 05:34:16;;;;;;;6.25;1.20;;;16.70;57.00;;;;;;6219704;28;20049;-80
2021/09/30 05:37:17;;;;;;;2.00;1.38;;;16.80;57.00;;;;;;6190147;28;20057;-77
2021/09/30 05:40:20;;;;;;;8.98;1.73;;;16.70;57.00;;;;;;6196940;28;20431;-77
2021/09/30 05:43:33;;;;;;;2.50;0.98;;;16.70;57.00;;;;;;6205211;28;20520;-77
2021/09/30 05:46:43;;;;;;;1.30;0.90;;;16.70;57.10;;;;;;6189076;28;20133;-82
2021/09/30 05:49:44;;;;;;;2.22;0.95;;;16.60;57.20;;;;;;6217757;28;20471;-80
2021/09/30 05:53:04;;;;;;;1.23;0.73;;;16.60;57.40;;;;;;6208460;28;20045;-77
2021/09/30 05:56:28;;;;;;;4.50;0.90;;;16.60;57.30;;;;;;6219776;28;20050;-78
2021/09/30 05:59:29;;;;;;;5.25;0.95;;;16.60;57.30;;;;;;6199048;28;20041;-78
2021/09/30 06:12:39;;;;;;;6.25;1.35;;;16.60;57.10;;;;;;6118414;29;20040;-77
2021/09/30 06:15:42;;;;;;;3.83;0.73;;;16.60;57.10;;;;;;6124357;29;20419;-78
2021/09/30 06:18:44;;;;;;;5.40;0.82;;;16.70;57.20;;;;;;6122780;29;20039;-78
2021/09/30 06:21:51;;;;;;;3.13;0.88;;;16.60;57.20;;;;;;6115386;29;20039;-78
2021/09/30 06:24:53;;;;;;;2.55;1.00;;;16.60;57.20;;;;;;6115616;29;20043;-79
2021/09/30 06:27:55;;;;;;;3.10;0.70;;;16.50;57.10;;;;;;6131533;28;20035;-80
2021/09/30 06:30:55;;;;;;;4.25;1.10;;;16.50;57.10;;;;;;6123766;28;20479;-77
2021/09/30 06:34:16;;;;;;;2.15;0.88;;;16.50;57.10;;;;;;6129660;29;20035;-79
2021/09/30 06:37:36;;;;;;;3.67;1.00;;;16.50;57.10;;;;;;6133876;28;20140;-79
2021/09/30 06:40:38;;;;;;;3.58;0.98;;;16.40;57.10;;;;;;6184248;28;20038;-78
2021/09/30 06:43:40;;;;;;;1.63;0.52;;;16.40;57.10;;;;;;6186983;28;20172;-78
2021/09/30 06:47:20;;;;;;;1.10;0.70;;;16.50;57.10;;;;;;6189178;28;20030;-80
2021/09/30 06:50:21;;;;;;;1.98;0.90;;;16.50;56.90;;;;;;6176422;28;20144;-78
2021/09/30 06:53:48;;;;;;;1.10;0.80;;;16.50;56.80;;;;;;6200856;28;20390;-77
2021/09/30 06:57:09;;;;;;;3.47;1.50;;;16.60;56.80;;;;;;6198035;28;20412;-78
2021/09/30 07:00:30;;;;;;;3.58;1.10;;;16.60;56.70;;;;;;6183803;28;20042;-78
2021/09/30 07:03:50;;;;;;;5.22;0.82;;;16.70;56.60;;;;;;6180576;28;20045;-78
2021/09/30 07:06:56;;;;;;;2.50;1.02;;;16.70;56.50;;;;;;6166416;28;20035;-80
2021/09/30 07:09:57;;;;;;;1.25;0.90;;;16.70;56.40;;;;;;6150637;28;20453;-77
2021/09/30 07:12:58;;;;;;;9.93;0.90;;;16.80;56.40;;;;;;6192472;28;20052;-79
2021/09/30 07:15:59;;;;;;;1.23;0.65;;;16.70;56.30;;;;;;6194529;28;20341;-79
2021/09/30 07:19:00;;;;;;;8.75;1.45;;;16.70;56.30;;;;;;6177746;28;20371;-78
2021/09/30 07:22:02;;;;;;;0.85;0.70;;;16.70;56.30;;;;;;6160977;28;20039;-79
2021/09/30 07:25:04;;;;;;;3.97;0.80;;;16.70;56.90;;;;;;6192954;28;20134;-78
2021/09/30 07:28:06;;;;;;;3.03;1.45;;;16.70;56.40;;;;;;6194655;28;20042;-79
2021/09/30 07:31:07;;;;;;;11.73;1.42;;;16.70;56.40;;;;;;6194028;28;20049;-79
2021/09/30 07:34:11;;;;;;;1.33;0.68;;;16.70;56.30;;;;;;6194145;28;20042;-80
2021/09/30 07:37:12;;;;;;;2.28;0.95;;;16.80;56.40;;;;;;6186929;28;20100;-78
2021/09/30 07:40:15;;;;;;;5.35;1.02;;;16.80;56.40;;;;;;6192508;28;20413;-79
2021/09/30 07:43:16;;;;;;;8.32;1.17;;;16.80;56.50;;;;;;6217809;28;20141;-78
2021/09/30 07:46:17;;;;;;;1.17;0.60;;;16.90;56.40;;;;;;6192257;28;20037;-78
2021/09/30 07:49:19;;;;;;;3.20;0.73;;;17.00;56.80;;;;;;6217121;28;20053;-80
2021/09/30 07:52:20;;;;;;;2.25;0.73;;;17.10;56.10;;;;;;6192849;28;20035;-78
2021/09/30 07:55:22;;;;;;;3.78;0.57;;;17.20;55.80;;;;;;6193826;28;20069;-79
2021/09/30 07:58:24;;;;;;;0.85;0.60;;;17.30;55.50;;;;;;6194744;28;20042;-77
2021/09/30 08:01:26;;;;;;;1.25;1.00;;;17.50;55.20;;;;;;6200435;28;20355;-79
2021/09/30 08:04:27;;;;;;;1.23;0.68;;;17.60;54.80;;;;;;6220134;28;20049;-78
2021/09/30 08:07:28;;;;;;;3.20;1.13;;;17.80;54.70;;;;;;6182946;28;20049;-79
2021/09/30 08:10:29;;;;;;;2.88;0.90;;;17.90;54.40;;;;;;6212733;28;20343;-78
2021/09/30 08:13:31;;;;;;;2.30;1.23;;;18.10;54.20;;;;;;6199616;28;20065;-79
2021/09/30 08:16:32;;;;;;;4.43;0.82;;;18.20;53.90;;;;;;6207550;28;20510;-77
2021/09/30 08:19:33;;;;;;;0.95;0.70;;;18.30;53.70;;;;;;6190572;28;20030;-78
2021/09/30 08:22:34;;;;;;;1.48;1.00;;;18.40;53.60;;;;;;6190716;28;20037;-78
2021/09/30 08:25:35;;;;;;;4.38;0.80;;;18.50;53.40;;;;;;6206578;28;20113;-77
2021/09/30 08:28:37;;;;;;;2.72;0.65;;;18.60;53.10;;;;;;6207462;28;20439;-78
2021/09/30 08:31:37;;;;;;;2.88;0.65;;;18.60;53.10;;;;;;6161753;28;20084;-79
2021/09/30 08:34:38;;;;;;;1.75;0.85;;;18.70;53.00;;;;;;6223754;28;20029;-79
2021/09/30 08:37:40;;;;;;;0.90;0.47;;;18.80;52.90;;;;;;6223564;28;20046;-78
2021/09/30 08:40:42;;;;;;;4.03;0.90;;;18.80;52.50;;;;;;6196256;28;20106;-78
2021/09/30 08:43:44;;;;;;;6.93;2.42;;;18.80;52.30;;;;;;6206613;28;20042;-78
2021/09/30 08:46:45;;;;;;;6.90;2.65;;;18.90;52.40;;;;;;6204826;28;20422;-79
2021/09/30 08:49:46;;;;;;;6.55;1.48;;;19.00;52.20;;;;;;6222388;28;20069;-79
2021/09/30 08:52:47;;;;;;;2.33;0.80;;;19.10;52.10;;;;;;6195588;28;20124;-80
2021/09/30 08:55:48;;;;;;;4.63;0.93;;;19.20;51.80;;;;;;6230212;28;20034;-78
2021/09/30 08:58:51;;;;;;;2.45;0.90;;;19.30;52.00;;;;;;6213909;28;20082;-78
2021/09/30 09:02:14;;;;;;;4.13;1.17;;;19.40;51.00;;;;;;6228936;28;20044;-76
2021/09/30 09:05:16;;;;;;;1.60;0.63;;;19.50;50.70;;;;;;6206983;28;20046;-77
2021/09/30 09:08:17;;;;;;;6.32;0.98;;;19.40;50.60;;;;;;6227869;28;20512;-78
2021/09/30 09:11:18;;;;;;;1.42;0.95;;;19.50;50.70;;;;;;6198097;28;20069;-78
2021/09/30 09:14:27;;;;;;;3.03;0.90;;;19.50;50.30;;;;;;6197082;28;20043;-79
2021/09/30 09:17:29;;;;;;;5.20;1.02;;;19.50;50.20;;;;;;6182807;28;20066;-79
2021/09/30 09:20:30;;;;;;;4.22;1.00;;;19.50;50.50;;;;;;6188610;28;20388;-77
2021/09/30 09:23:52;;;;;;;4.38;1.30;;;19.60;50.20;;;;;;6196928;28;20046;-78
2021/09/30 09:26:59;;;;;;;1.73;1.00;;;19.60;50.10;;;;;;6073671;29;20226;-78
2021/09/30 09:30:01;;;;;;;2.20;1.48;;;19.70;50.30;;;;;;6079493;29;20134;-78
2021/09/30 09:33:18;;;;;;;2.20;1.13;;;19.80;50.10;;;;;;6098608;29;20450;-79
2021/09/30 09:36:25;;;;;;;4.18;1.13;;;19.90;49.90;;;;;;6106835;29;20097;-79
2021/09/30 09:39:36;;;;;;;7.47;1.92;;;20.00;49.60;;;;;;6114672;29;20031;-79
2021/09/30 09:42:37;;;;;;;6.03;2.25;;;20.00;49.40;;;;;;6123515;29;20044;-79
2021/09/30 09:45:46;;;;;;;2.88;1.30;;;20.10;49.40;;;;;;6124458;29;20091;-78
2021/09/30 09:49:18;;;;;;;3.15;1.17;;;20.10;49.20;;;;;;6125066;29;20416;-78
2021/09/30 09:52:19;;;;;;;3.92;1.17;;;20.30;49.00;;;;;;6124050;29;20039;-78
2021/09/30 09:55:26;;;;;;;3.28;1.00;;;20.40;48.70;;;;;;6106444;29;20427;-78
2021/09/30 09:58:27;;;;;;;2.28;1.02;;;20.50;48.00;;;;;;6111348;28;20046;-79
2021/09/30 10:01:42;;;;;;;6.68;2.67;;;20.50;47.50;;;;;;6108028;29;20035;-79
2021/09/30 10:04:43;;;;;;;4.97;1.17;;;20.50;47.50;;;;;;6186313;28;20034;-79
2021/09/30 10:07:46;;;;;;;2.70;1.02;;;20.70;47.30;;;;;;6189850;28;20038;-80
2021/09/30 10:10:49;;;;;;;1.55;0.88;;;20.70;47.10;;;;;;6207574;28;20088;-78
2021/09/30 10:13:50;;;;;;;1.88;0.52;;;20.90;46.70;;;;;;6195520;28;20145;-78
2021/09/30 10:16:51;;;;;;;1.23;0.75;;;21.00;46.50;;;;;;6198114;28;20402;-79
2021/09/30 10:19:52;;;;;;;3.33;0.70;;;21.10;46.10;;;;;;6200043;28;20042;-79
2021/09/30 10:22:54;;;;;;;7.43;0.77;;;21.30;45.60;;;;;;6172595;28;20046;-79
2021/09/30 10:25:59;;;;;;;3.60;1.30;;;20.30;44.50;;;;;;6204626;28;20037;-79
2021/09/30 10:29:00;;;;;;;1.85;1.00;;;22.00;44.50;;;;;;6204003;28;20406;-79
2021/09/30 10:32:02;;;;;;;1.38;0.73;;;22.40;43.60;;;;;;6203551;28;20434;-78
2021/09/30 10:35:07;;;;;;;3.53;2.00;;;22.70;42.90;;;;;;6204434;28;20108;-79
2021/09/30 10:38:18;;;;;;;6.95;2.33;;;22.90;42.50;;;;;;6188371;28;20045;-79
2021/09/30 10:41:34;;;;;;;2.83;1.45;;;23.20;41.70;;;;;;6217188;28;20232;-80
2021/09/30 10:44:36;;;;;;;3.28;1.17;;;23.40;41.10;;;;;;6189203;28;20072;-78
2021/09/30 10:47:37;;;;;;;3.50;1.42;;;23.60;40.80;;;;;;6179063;28;20046;-78
2021/09/30 10:50:45;;;;;;;7.80;4.03;;;23.80;40.20;;;;;;6186724;28;20034;-78
2021/09/30 10:53:47;;;;;;;4.57;2.42;;;23.90;39.70;;;;;;6201850;28;20030;-79
2021/09/30 10:56:53;;;;;;;3.05;1.48;;;24.10;39.30;;;;;;6202427;28;20045;-79
2021/09/30 10:59:54;;;;;;;1.38;1.00;;;24.20;39.00;;;;;;6202991;28;20422;-80
2021/09/30 11:03:05;;;;;;;2.35;1.13;;;24.40;38.30;;;;;;6192162;28;20050;-80
2021/09/30 11:06:06;;;;;;;2.20;1.17;;;24.50;38.30;;;;;;6201501;28;20517;-78
2021/09/30 11:09:15;;;;;;;3.85;1.00;;;24.70;37.70;;;;;;6171417;28;20034;-79
2021/09/30 11:12:16;;;;;;;1.88;0.70;;;24.90;36.90;;;;;;6170075;28;20050;-80
2021/09/30 11:15:17;;;;;;;3.03;1.35;;;25.00;36.50;;;;;;6178112;28;20073;-79
2021/09/30 11:18:56;;;;;;;0.93;0.80;;;25.20;36.40;;;;;;6162036;28;20058;-79
2021/09/30 11:22:01;;;;;;;5.20;2.45;;;25.40;36.10;;;;;;6183082;28;20112;-79
2021/09/30 11:25:04;;;;;;;7.03;3.40;;;25.80;35.80;;;;;;6200697;28;20064;-79
2021/09/30 11:28:15;;;;;;;3.90;1.55;;;26.10;35.20;;;;;;6173241;28;20057;-78
2021/09/30 11:31:30;;;;;;;3.03;1.20;;;26.40;34.20;;;;;;6201698;28;20139;-79
2021/09/30 11:34:38;;;;;;;4.82;1.08;;;26.60;34.10;;;;;;6202961;28;20425;-79
2021/09/30 11:37:43;;;;;;;3.45;1.60;;;26.70;33.70;;;;;;6196471;28;20072;-79
2021/09/30 11:40:47;;;;;;;4.50;1.85;;;26.90;33.40;;;;;;6186584;28;20061;-79
2021/09/30 11:43:48;;;;;;;1.40;0.90;;;27.30;33.20;;;;;;6207207;28;20061;-79
2021/09/30 11:46:51;;;;;;;5.47;0.88;;;27.70;32.60;;;;;;6207627;28;20042;-79
2021/09/30 11:49:54;;;;;;;2.30;1.10;;;28.00;32.20;;;;;;6207921;28;20120;-79
2021/09/30 11:53:07;;;;;;;6.32;1.13;;;28.40;31.90;;;;;;6207446;28;20042;-79
2021/09/30 11:56:10;;;;;;;1.67;0.70;;;28.90;31.30;;;;;;6207311;28;20044;-79
2021/09/30 11:59:13;;;;;;;3.28;1.35;;;29.40;30.10;;;;;;6223363;28;20050;-79
2021/09/30 12:02:14;;;;;;;2.45;0.85;;;29.80;29.90;;;;;;6223238;28;20049;-79
2021/09/30 12:05:18;;;;;;;1.88;0.80;;;30.10;29.60;;;;;;6207839;28;20053;-79
2021/09/30 12:08:19;;;;;;;2.13;0.73;;;30.40;29.00;;;;;;6207604;28;20035;-79
2021/09/30 12:11:20;;;;;;;3.40;1.00;;;30.80;28.70;;;;;;6190813;28;20386;-79
2021/09/30 12:14:22;;;;;;;1.27;0.68;;;31.00;28.00;;;;;;6200900;28;20065;-79
2021/09/30 12:17:32;;;;;;;3.65;0.90;;;31.30;27.80;;;;;;6200059;28;20042;-79
2021/09/30 12:20:32;;;;;;;1.13;0.80;;;31.60;27.30;;;;;;6205448;28;20044;-79
2021/09/30 12:23:34;;;;;;;4.82;0.80;;;32.00;26.80;;;;;;6229952;28;20034;-79
2021/09/30 12:26:35;;;;;;;1.63;0.60;;;32.30;26.50;;;;;;6214055;28;20033;-79
2021/09/30 12:29:41;;;;;;;1.13;0.60;;;32.70;26.20;;;;;;6225950;28;20060;-80
2021/09/30 12:32:45;;;;;;;5.78;0.80;;;32.90;25.70;;;;;;6207949;28;20030;-79
2021/09/30 12:35:47;;;;;;;1.88;0.70;;;33.10;25.30;;;;;;6218478;28;20026;-79
2021/09/30 12:38:59;;;;;;;0.98;0.70;;;33.30;24.90;;;;;;6207650;28;20041;-79
2021/09/30 12:42:15;;;;;;;5.18;2.90;;;33.50;24.40;;;;;;6191744;28;20046;-79
2021/09/30 12:45:16;;;;;;;0.88;0.60;;;33.30;24.30;;;;;;6209009;28;20435;-79
2021/09/30 12:48:22;;;;;;;1.45;0.63;;;33.30;24.20;;;;;;6226145;28;20026;-79
2021/09/30 12:51:24;;;;;;;1.20;0.70;;;33.00;24.20;;;;;;6179580;28;20122;-79
2021/09/30 12:54:26;;;;;;;4.70;0.82;;;32.20;24.70;;;;;;6183697;28;20034;-79
2021/09/30 12:57:33;;;;;;;2.33;0.75;;;31.20;25.60;;;;;;6167379;28;20041;-79
2021/09/30 13:00:36;;;;;;;6.10;0.60;;;30.30;26.40;;;;;;6200007;28;20349;-78
2021/09/30 13:03:38;;;;;;;6.75;1.02;;;29.60;27.00;;;;;;6196473;28;20045;-79
2021/09/30 13:06:41;;;;;;;1.38;0.82;;;29.00;27.70;;;;;;6207747;28;20455;-78
2021/09/30 13:09:42;;;;;;;8.30;0.93;;;28.40;28.10;;;;;;6195529;28;20072;-78
2021/09/30 13:13:01;;;;;;;9.32;1.00;;;28.00;28.70;;;;;;6203799;28;20057;-78
2021/09/30 13:16:03;;;;;;;0.82;0.60;;;27.50;29.30;;;;;;6172146;28;20495;-78
2021/09/30 13:19:04;;;;;;;2.22;1.00;;;27.10;29.70;;;;;;6185813;28;20121;-78
2021/09/30 13:22:06;;;;;;;2.05;0.98;;;26.70;30.20;;;;;;6200512;28;20106;-78
2021/09/30 13:25:15;;;;;;;3.05;0.90;;;26.40;30.80;;;;;;6199675;28;20133;-77
2021/09/30 13:28:16;;;;;;;1.70;0.70;;;26.10;31.30;;;;;;6186944;28;20034;-77
2021/09/30 13:31:17;;;;;;;1.08;0.60;;;25.80;31.70;;;;;;6183796;28;20042;-78
2021/09/30 13:34:19;;;;;;;1.50;0.70;;;25.60;32.40;;;;;;6183194;28;20158;-78
2021/09/30 13:37:21;;;;;;;4.15;0.80;;;25.40;32.80;;;;;;6190711;28;20039;-79
2021/09/30 13:40:23;;;;;;;4.85;0.65;;;25.20;33.20;;;;;;6182975;28;20133;-78
2021/09/30 13:43:24;;;;;;;2.35;0.70;;;25.00;33.40;;;;;;6183420;28;20470;-78
2021/09/30 13:46:25;;;;;;;2.13;0.70;;;24.90;33.70;;;;;;6183202;28;20039;-78
2021/09/30 13:49:26;;;;;;;3.60;1.50;;;24.80;34.10;;;;;;6194111;28;20540;-79
2021/09/30 13:52:29;;;;;;;1.10;0.70;;;24.70;34.40;;;;;;6178350;28;20042;-79
2021/09/30 13:55:32;;;;;;;5.88;0.90;;;24.70;34.80;;;;;;6199778;28;20065;-79
2021/09/30 13:58:35;;;;;;;1.38;0.57;;;24.60;35.10;;;;;;6164001;28;20052;-78
2021/09/30 14:01:37;;;;;;;2.67;0.65;;;24.50;35.20;;;;;;6182012;28;20128;-79
2021/09/30 14:04:38;;;;;;;2.60;0.63;;;24.40;35.50;;;;;;6182365;28;20057;-79
2021/09/30 14:07:41;;;;;;;3.60;0.77;;;24.30;35.60;;;;;;6164856;28;20034;-79
2021/09/30 14:10:42;;;;;;;3.25;1.45;;;24.30;35.90;;;;;;6180246;28;20030;-78
2021/09/30 14:13:43;;;;;;;5.95;0.70;;;24.30;36.20;;;;;;6182333;28;20045;-78
2021/09/30 14:16:48;;;;;;;2.42;0.70;;;24.30;36.40;;;;;;6183198;28;20049;-78
2021/09/30 14:19:49;;;;;;;4.55;0.77;;;24.30;36.70;;;;;;6185744;28;20107;-78
2021/09/30 14:22:50;;;;;;;3.40;0.80;;;24.20;37.00;;;;;;6200349;28;20114;-78
2021/09/30 14:25:52;;;;;;;1.60;0.63;;;24.10;37.00;;;;;;6199475;28;20052;-78
2021/09/30 14:28:53;;;;;;;4.20;1.10;;;24.10;37.10;;;;;;6199287;28;20337;-78
2021/09/30 14:31:54;;;;;;;3.38;0.70;;;24.20;37.30;;;;;;6180037;28;20054;-78
2021/09/30 14:34:55;;;;;;;4.57;1.00;;;24.20;37.30;;;;;;6198134;28;20038;-79
2021/09/30 14:37:57;;;;;;;4.00;0.80;;;24.20;37.40;;;;;;6199133;28;20074;-79
2021/09/30 14:40:58;;;;;;;6.82;1.73;;;24.20;37.50;;;;;;6181135;28;20037;-78
2021/09/30 14:43:59;;;;;;;1.75;0.98;;;24.20;37.60;;;;;;6182156;28;20050;-78
2021/09/30 14:47:01;;;;;;;1.10;0.88;;;24.10;37.60;;;;;;6199074;28;20042;-78
2021/09/30 14:50:02;;;;;;;1.80;0.68;;;24.00;37.70;;;;;;6192290;28;20100;-78
2021/09/30 14:53:03;;;;;;;2.05;1.00;;;24.00;37.80;;;;;;6165990;28;20379;-77
2021/09/30 14:56:05;;;;;;;3.30;2.13;;;23.90;38.10;;;;;;6182183;28;20149;-77
2021/09/30 14:59:06;;;;;;;2.85;1.20;;;23.90;38.20;;;;;;6181367;28;20093;-79
2021/09/30 15:02:08;;;;;;;2.67;0.82;;;23.90;38.40;;;;;;6198275;28;20042;-78
2021/09/30 15:05:09;;;;;;;2.30;0.98;;;23.80;38.40;;;;;;6199321;28;20042;-79
2021/09/30 15:08:11;;;;;;;1.27;0.80;;;23.80;38.60;;;;;;6181831;28;20053;-79
2021/09/30 15:11:12;;;;;;;4.82;1.02;;;23.80;38.80;;;;;;6181434;28;20125;-77
2021/09/30 15:14:13;;;;;;;3.50;0.80;;;23.80;38.90;;;;;;6188177;28;20459;-78
2021/09/30 15:23:38;;;;;;;2.28;0.60;;;23.80;39.10;;;;;;6202814;28;20183;-77
2021/09/30 15:26:39;;;;;;;6.30;0.80;;;23.80;39.30;;;;;;6223536;28;20042;-78
2021/09/30 15:29:40;;;;;;;2.92;1.00;;;23.80;39.30;;;;;;6164797;28;20038;-79
2021/09/30 15:32:41;;;;;;;2.78;0.90;;;23.80;39.40;;;;;;6180301;28;20030;-78
2021/09/30 15:35:42;;;;;;;2.38;0.80;;;23.80;39.50;;;;;;6188798;28;20125;-78
2021/09/30 15:38:44;;;;;;;2.35;1.00;;;23.80;39.70;;;;;;6204186;28;20034;-78
2021/09/30 15:41:46;;;;;;;2.25;0.93;;;23.70;39.70;;;;;;6198344;28;20378;-78
2021/09/30 15:44:46;;;;;;;1.63;0.80;;;23.70;39.70;;;;;;6197213;28;20034;-79
2021/09/30 15:47:47;;;;;;;9.77;1.30;;;23.70;39.80;;;;;;6197337;28;20157;-79
2021/09/30 15:50:48;;;;;;;5.75;1.52;;;23.70;39.90;;;;;;6196139;28;20423;-79
2021/09/30 15:53:49;;;;;;;2.22;1.15;;;23.70;39.90;;;;;;6162737;28;20046;-78
2021/09/30 15:56:51;;;;;;;1.65;0.57;;;23.60;39.80;;;;;;6180154;28;20125;-80
2021/09/30 15:59:52;;;;;;;6.97;0.70;;;23.60;39.80;;;;;;6188228;28;20140;-79
2021/09/30 16:02:53;;;;;;;1.50;0.88;;;23.50;39.80;;;;;;6203908;28;20037;-79
2021/09/30 16:05:55;;;;;;;0.80;0.57;;;23.40;39.90;;;;;;6221985;28;20045;-79
2021/09/30 16:08:56;;;;;;;3.35;0.85;;;23.50;40.00;;;;;;6221510;28;20034;-78
2021/09/30 16:11:57;;;;;;;3.10;0.80;;;23.40;40.00;;;;;;6204252;28;20367;-78
2021/09/30 16:14:57;;;;;;;1.52;0.70;;;23.30;40.10;;;;;;6212486;28;20088;-79
2021/09/30 16:17:59;;;;;;;2.33;0.60;;;23.30;40.20;;;;;;6197172;28;20049;-78
2021/09/30 16:20:59;;;;;;;0.70;0.50;;;23.30;40.40;;;;;;6187741;28;20041;-79
2021/09/30 16:24:00;;;;;;;0.93;0.70;;;23.10;40.50;;;;;;6211152;28;20042;-78
2021/09/30 16:27:01;;;;;;;5.60;0.75;;;23.00;40.60;;;;;;6202057;28;20129;-77
2021/09/30 16:30:06;;;;;;;3.72;1.52;;;22.90;40.70;;;;;;6206436;28;20045;-79
2021/09/30 16:33:10;;;;;;;6.97;1.58;;;22.80;40.80;;;;;;6225378;28;20042;-80
2021/09/30 16:36:11;;;;;;;1.35;0.90;;;22.70;40.90;;;;;;6208742;28;20458;-79
2021/09/30 16:39:11;;;;;;;1.40;0.90;;;22.70;41.00;;;;;;6191998;28;20085;-78
2021/09/30 16:42:12;;;;;;;2.25;1.10;;;22.60;41.20;;;;;;6224892;28;20030;-79
2021/09/30 16:45:19;;;;;;;3.83;1.40;;;22.50;41.40;;;;;;6208794;28;20386;-78
2021/09/30 16:48:23;;;;;;;9.10;1.10;;;22.50;41.50;;;;;;6206318;28;20054;-79
2021/09/30 16:51:26;;;;;;;2.08;1.30;;;22.40;41.70;;;;;;6207405;28;20481;-77
2021/09/30 16:54:27;;;;;;;3.28;1.10;;;22.30;41.80;;;;;;6182548;28;20034;-77
2021/09/30 16:57:27;;;;;;;3.15;1.50;;;22.30;41.90;;;;;;6191044;28;20104;-79
2021/09/30 17:00:28;;;;;;;2.78;0.80;;;22.20;42.00;;;;;;6225658;28;20107;-79
2021/09/30 17:03:29;;;;;;;4.20;0.90;;;22.20;42.10;;;;;;6208013;28;20037;-80
2021/09/30 17:06:30;;;;;;;3.33;0.90;;;22.20;42.20;;;;;;6207201;28;20041;-78
2021/09/30 17:09:31;;;;;;;3.47;0.93;;;22.10;42.20;;;;;;6224595;28;20038;-80
2021/09/30 17:12:32;;;;;;;2.17;1.30;;;22.00;42.30;;;;;;6208009;28;20061;-80
2021/09/30 17:15:36;;;;;;;9.68;1.85;;;22.00;42.30;;;;;;6225383;28;20478;-80
2021/09/30 17:18:37;;;;;;;2.08;1.35;;;22.00;42.40;;;;;;6189262;28;20364;-79
2021/09/30 17:21:38;;;;;;;4.47;0.90;;;22.00;42.40;;;;;;6208153;28;20046;-79
2021/09/30 17:24:39;;;;;;;1.40;0.98;;;22.00;42.50;;;;;;6208113;28;20037;-78
2021/09/30 17:27:41;;;;;;;3.92;1.00;;;21.90;42.50;;;;;;6192784;28;20045;-78
2021/09/30 17:30:42;;;;;;;6.47;1.80;;;21.90;42.60;;;;;;6207525;28;20121;-79
2021/09/30 17:33:47;;;;;;;3.72;1.33;;;21.90;42.90;;;;;;6207069;28;20038;-81
2021/09/30 17:36:47;;;;;;;3.85;1.15;;;21.80;43.10;;;;;;6236611;28;20042;-80
2021/09/30 17:39:49;;;;;;;2.78;1.05;;;21.80;43.40;;;;;;6208913;28;20120;-83
2021/09/30 17:42:51;;;;;;;4.85;1.23;;;21.80;43.70;;;;;;6214009;28;20078;-81
2021/09/30 17:45:52;;;;;;;4.43;1.42;;;21.70;43.90;;;;;;6221984;28;20370;-80
2021/09/30 17:48:52;;;;;;;1.98;1.00;;;21.60;44.20;;;;;;6223595;28;20030;-82
2021/09/30 17:51:54;;;;;;;3.30;1.15;;;21.60;44.40;;;;;;6216055;28;20427;-81
2021/09/30 17:54:55;;;;;;;5.78;1.48;;;21.60;44.80;;;;;;6206572;28;20048;-81
2021/09/30 18:02:20;;;;;;;1.77;0.80;;;21.40;45.10;;;;;;6211181;28;20042;-81
2021/09/30 18:05:21;;;;;;;1.15;0.90;;;21.40;45.40;;;;;;6206592;28;20050;-81
2021/09/30 18:08:22;;;;;;;3.72;1.50;;;21.30;45.40;;;;;;6205101;28;20041;-82
2021/09/30 18:11:23;;;;;;;2.83;1.15;;;21.30;45.50;;;;;;6203150;28;20117;-83
2021/09/30 18:14:24;;;;;;;4.55;1.40;;;21.30;45.70;;;;;;6193820;28;20048;-81
2021/09/30 18:17:25;;;;;;;6.25;1.30;;;20.40;45.70;;;;;;6205451;28;20047;-80
2021/09/30 18:20:26;;;;;;;5.38;1.70;;;21.20;46.20;;;;;;6198123;28;20160;-81
2021/09/30 18:23:39;;;;;;;1.85;0.95;;;21.20;46.40;;;;;;6220974;28;20037;-81
2021/09/30 18:26:39;;;;;;;2.47;1.00;;;21.10;46.70;;;;;;6223132;28;20034;-80
2021/09/30 18:29:40;;;;;;;5.65;1.25;;;21.10;47.00;;;;;;6206150;28;20034;-78
2021/09/30 18:32:42;;;;;;;4.85;1.33;;;21.00;47.10;;;;;;6194749;28;20041;-79
2021/09/30 18:35:46;;;;;;;3.67;1.17;;;20.90;47.10;;;;;;6194841;28;20128;-80
2021/09/30 18:38:47;;;;;;;4.45;1.20;;;20.90;47.40;;;;;;6204662;28;20032;-78
2021/09/30 18:41:50;;;;;;;5.90;1.58;;;20.80;47.40;;;;;;6205066;28;20042;-78
2021/09/30 18:44:53;;;;;;;1.50;0.90;;;20.80;47.60;;;;;;6205156;28;20041;-80
2021/09/30 18:47:54;;;;;;;1.90;1.08;;;20.70;47.70;;;;;;6221525;28;20113;-78
2021/09/30 18:50:55;;;;;;;1.60;1.05;;;20.70;47.90;;;;;;6189841;28;20058;-85
2021/09/30 18:53:59;;;;;;;2.85;1.02;;;20.70;47.90;;;;;;6171261;28;20499;-83
2021/09/30 18:57:00;;;;;;;9.40;1.13;;;20.60;48.00;;;;;;6158801;28;20121;-82
2021/09/30 19:00:03;;;;;;;5.03;1.35;;;20.50;48.10;;;;;;6188026;28;20034;-80
2021/09/30 19:03:04;;;;;;;5.72;1.52;;;20.50;48.50;;;;;;6198282;28;20038;-80